A- A+ FrançaisEnglishEspañol中国

Services sur Internet Soldes sur Internet Des idées de cadeaux Météo Météo aéro

La météo à : Autours de vous Tarbes-Lourdes-PyrénéesPontoise-Cormeilles-En-VexinChateauroux-Deols Paris-Orly

manche à air

La météo aéronautique pour les pilotes, la préparation du vol avec les METAR (METeorological Aerodrome Report, message d'observation des conditions météorologiques pour l'aviation) et Les TAF (Terminal Aerodrome Forecast : message de prévision à court terme des conditions météorologiques pour l'aviation). Et les autres ressources comme les VAC (Visual Approch Chart) et les NOTAM (Notice To Airman) pour préprer les vols.

Aéroport Illizi Illirane (Algérie) / OACI DAAP/ IATA VVZ

L'altitude de l'aéroport Illizi Illirane est de 542 m = 1778 ft. Il est situé à proximité de Illizi (Algérie). La météo générale à 5 jours est disponible pour Wilaya d’ Illizi situé à 46.9 km.

METAR de l'aéroport Illizi Illirane - DAAP

DAAP 041800Z 06002KT CAVOK 25/M02 Q1018

Décodage du METAR de l'aéroport Illizi Illirane (DZ)

METAR émis par DAAP le lundi 4 novembre 2019 à 18:00 heure TU. Attention ce METAR est obsolète car il a été émis il y a 7 heure et 58 minutes.

La visibilité est de supérieure à 10 km = supérieure à 6.2 sm.

La température est de 25°C = 77 °F et le point rosée est de -2°C = 28 °F . Ce qui correspond à 17% d'humidité relative.

Le QNH est de 1018 hPa = 30.06 inHg

Vent de 2 kt = 4 km/h, orienté à 60°.

Pas de nuages.

TAF de l'aéroport Illizi Illirane - DAAP

DAAP 041700Z 0418/0503 36006KT CAVOK

DAAP 041700Z 0418/0503 36006KT visibilité supérieure à 10km, aucun nuage à une hauteur inférieure à 5000 ft ou sous l'altitude minimale de secteur et aucun cumulonimbus ou cumulus bourgeonnant, quelle que soit leur altitude

Aéroport à proximité de Illizi Illirane

Météo générale à 5 jours à Wilaya d’ Illizi (46.9 km)Aéroport Zarzaitine In Amenas (179 km)Aéroport Ghat (232 km)Aéroport Bordj Omar Driss (236 km)Aéroport Djanet Tiska (283 km)Aéroport Ghadames (396 km)Aéroport Tamanrasset (540 km)

Vue aérienne de l'aéroport Illizi Illirane

NOTAM de l'aéroport Illizi Illirane

Les NOTAM sont fournis sans aucune garantie de leur actualité. Le pilote est le seul responsable de la vérification de sa validité avant de l'utiliser opérationnellement pour préparer un vol ou l'utiliser lors de sa navigation.

Pas de NOTAM

Sources des données